sensor_id;sensor_type;location;lat;lon;timestamp;P1;durP1;ratioP1;P2;durP2;ratioP2
32876;SDS011;19226;51.600;8.034;2024-03-29T00:00:35;0.20;;;0.20;;
32876;SDS011;19226;51.600;8.034;2024-03-29T00:03:20;0.20;;;0.20;;
32876;SDS011;19226;51.600;8.034;2024-03-29T00:06:05;0.20;;;0.20;;
32876;SDS011;19226;51.600;8.034;2024-03-29T00:08:49;0.20;;;0.20;;
32876;SDS011;19226;51.600;8.034;2024-03-29T00:11:33;0.20;;;0.20;;
32876;SDS011;19226;51.600;8.034;2024-03-29T00:14:18;0.20;;;0.20;;
32876;SDS011;19226;51.600;8.034;2024-03-29T00:17:03;0.20;;;0.20;;
32876;SDS011;19226;51.600;8.034;2024-03-29T00:19:48;0.20;;;0.20;;
32876;SDS011;19226;51.600;8.034;2024-03-29T00:22:32;0.20;;;0.20;;
32876;SDS011;19226;51.600;8.034;2024-03-29T00:25:17;0.20;;;0.20;;
32876;SDS011;19226;51.600;8.034;2024-03-29T00:28:01;0.20;;;0.20;;
32876;SDS011;19226;51.600;8.034;2024-03-29T00:30:47;0.20;;;0.20;;
32876;SDS011;19226;51.600;8.034;2024-03-29T00:33:31;0.20;;;0.20;;
32876;SDS011;19226;51.600;8.034;2024-03-29T00:36:16;0.20;;;0.20;;
32876;SDS011;19226;51.600;8.034;2024-03-29T00:39:00;0.20;;;0.20;;
32876;SDS011;19226;51.600;8.034;2024-03-29T00:41:45;0.20;;;0.20;;
32876;SDS011;19226;51.600;8.034;2024-03-29T00:44:29;0.20;;;0.20;;
32876;SDS011;19226;51.600;8.034;2024-03-29T00:47:14;0.20;;;0.20;;
32876;SDS011;19226;51.600;8.034;2024-03-29T00:49:58;0.20;;;0.20;;
32876;SDS011;19226;51.600;8.034;2024-03-29T00:52:43;0.20;;;0.20;;
32876;SDS011;19226;51.600;8.034;2024-03-29T00:55:27;0.20;;;0.20;;
32876;SDS011;19226;51.600;8.034;2024-03-29T00:58:12;0.20;;;0.20;;
32876;SDS011;19226;51.600;8.034;2024-03-29T01:00:56;0.20;;;0.20;;
32876;SDS011;19226;51.600;8.034;2024-03-29T01:03:41;0.25;;;0.25;;
32876;SDS011;19226;51.600;8.034;2024-03-29T01:06:25;0.20;;;0.20;;
32876;SDS011;19226;51.600;8.034;2024-03-29T01:09:10;0.20;;;0.20;;
32876;SDS011;19226;51.600;8.034;2024-03-29T01:11:57;0.20;;;0.20;;
32876;SDS011;19226;51.600;8.034;2024-03-29T01:14:42;0.20;;;0.20;;
32876;SDS011;19226;51.600;8.034;2024-03-29T01:17:26;0.20;;;0.20;;
32876;SDS011;19226;51.600;8.034;2024-03-29T01:20:11;0.20;;;0.20;;
32876;SDS011;19226;51.600;8.034;2024-03-29T01:22:56;0.20;;;0.20;;
32876;SDS011;19226;51.600;8.034;2024-03-29T01:25:41;0.20;;;0.20;;
32876;SDS011;19226;51.600;8.034;2024-03-29T01:28:26;0.20;;;0.20;;
32876;SDS011;19226;51.600;8.034;2024-03-29T01:31:11;0.20;;;0.20;;
32876;SDS011;19226;51.600;8.034;2024-03-29T01:33:59;0.20;;;0.20;;
32876;SDS011;19226;51.600;8.034;2024-03-29T01:36:46;0.20;;;0.20;;
32876;SDS011;19226;51.600;8.034;2024-03-29T01:39:31;0.20;;;0.20;;
32876;SDS011;19226;51.600;8.034;2024-03-29T01:42:16;0.20;;;0.20;;
32876;SDS011;19226;51.600;8.034;2024-03-29T01:45:01;0.20;;;0.20;;
32876;SDS011;19226;51.600;8.034;2024-03-29T01:47:46;0.20;;;0.20;;
32876;SDS011;19226;51.600;8.034;2024-03-29T01:50:31;0.20;;;0.20;;
32876;SDS011;19226;51.600;8.034;2024-03-29T01:53:16;0.20;;;0.20;;
32876;SDS011;19226;51.600;8.034;2024-03-29T01:56:03;0.20;;;0.20;;
32876;SDS011;19226;51.600;8.034;2024-03-29T01:58:51;0.20;;;0.20;;
32876;SDS011;19226;51.600;8.034;2024-03-29T02:01:39;0.20;;;0.20;;
32876;SDS011;19226;51.600;8.034;2024-03-29T02:04:24;0.20;;;0.20;;
32876;SDS011;19226;51.600;8.034;2024-03-29T02:07:09;0.20;;;0.20;;
32876;SDS011;19226;51.600;8.034;2024-03-29T02:09:54;0.20;;;0.20;;
32876;SDS011;19226;51.600;8.034;2024-03-29T02:12:39;0.20;;;0.20;;
32876;SDS011;19226;51.600;8.034;2024-03-29T02:15:23;0.20;;;0.20;;
32876;SDS011;19226;51.600;8.034;2024-03-29T02:18:08;0.20;;;0.20;;
32876;SDS011;19226;51.600;8.034;2024-03-29T02:20:52;0.20;;;0.20;;
32876;SDS011;19226;51.600;8.034;2024-03-29T02:23:37;0.20;;;0.20;;
32876;SDS011;19226;51.600;8.034;2024-03-29T02:26:26;0.10;;;0.10;;
32876;SDS011;19226;51.600;8.034;2024-03-29T02:29:15;0.20;;;0.20;;
32876;SDS011;19226;51.600;8.034;2024-03-29T02:31:59;0.20;;;0.20;;
32876;SDS011;19226;51.600;8.034;2024-03-29T02:34:44;0.20;;;0.20;;
32876;SDS011;19226;51.600;8.034;2024-03-29T02:37:28;0.20;;;0.20;;
32876;SDS011;19226;51.600;8.034;2024-03-29T02:40:13;0.20;;;0.20;;
32876;SDS011;19226;51.600;8.034;2024-03-29T02:42:57;0.20;;;0.20;;
32876;SDS011;19226;51.600;8.034;2024-03-29T02:45:42;0.20;;;0.20;;
32876;SDS011;19226;51.600;8.034;2024-03-29T02:48:27;0.20;;;0.20;;
32876;SDS011;19226;51.600;8.034;2024-03-29T02:51:11;0.20;;;0.20;;
32876;SDS011;19226;51.600;8.034;2024-03-29T02:53:56;0.20;;;0.20;;
32876;SDS011;19226;51.600;8.034;2024-03-29T02:56:41;0.20;;;0.20;;
32876;SDS011;19226;51.600;8.034;2024-03-29T02:59:25;0.10;;;0.10;;
32876;SDS011;19226;51.600;8.034;2024-03-29T03:02:10;0.10;;;0.10;;
32876;SDS011;19226;51.600;8.034;2024-03-29T03:04:54;0.20;;;0.20;;
32876;SDS011;19226;51.600;8.034;2024-03-29T03:07:39;0.17;;;0.17;;
32876;SDS011;19226;51.600;8.034;2024-03-29T03:10:46;0.20;;;0.20;;
32876;SDS011;19226;51.600;8.034;2024-03-29T03:13:40;0.20;;;0.20;;
32876;SDS011;19226;51.600;8.034;2024-03-29T03:16:25;0.20;;;0.20;;
32876;SDS011;19226;51.600;8.034;2024-03-29T03:19:09;0.20;;;0.20;;
32876;SDS011;19226;51.600;8.034;2024-03-29T03:21:53;0.20;;;0.20;;
32876;SDS011;19226;51.600;8.034;2024-03-29T03:24:38;0.20;;;0.20;;
32876;SDS011;19226;51.600;8.034;2024-03-29T03:27:23;0.20;;;0.20;;
32876;SDS011;19226;51.600;8.034;2024-03-29T03:30:07;0.10;;;0.10;;
32876;SDS011;19226;51.600;8.034;2024-03-29T03:32:52;0.20;;;0.20;;
32876;SDS011;19226;51.600;8.034;2024-03-29T03:35:37;0.20;;;0.20;;
32876;SDS011;19226;51.600;8.034;2024-03-29T03:38:21;0.10;;;0.10;;
32876;SDS011;19226;51.600;8.034;2024-03-29T03:41:05;0.10;;;0.10;;
32876;SDS011;19226;51.600;8.034;2024-03-29T03:43:50;0.10;;;0.10;;
32876;SDS011;19226;51.600;8.034;2024-03-29T03:46:35;0.10;;;0.10;;
32876;SDS011;19226;51.600;8.034;2024-03-29T03:49:19;0.15;;;0.15;;
32876;SDS011;19226;51.600;8.034;2024-03-29T03:52:04;0.10;;;0.10;;
32876;SDS011;19226;51.600;8.034;2024-03-29T03:54:49;0.20;;;0.20;;
32876;SDS011;19226;51.600;8.034;2024-03-29T03:57:34;0.20;;;0.20;;
32876;SDS011;19226;51.600;8.034;2024-03-29T04:00:18;0.20;;;0.20;;
32876;SDS011;19226;51.600;8.034;2024-03-29T04:03:04;0.10;;;0.10;;
32876;SDS011;19226;51.600;8.034;2024-03-29T04:05:48;0.10;;;0.10;;
32876;SDS011;19226;51.600;8.034;2024-03-29T04:08:33;0.10;;;0.10;;
32876;SDS011;19226;51.600;8.034;2024-03-29T04:11:17;0.10;;;0.10;;
32876;SDS011;19226;51.600;8.034;2024-03-29T04:14:02;0.10;;;0.10;;
32876;SDS011;19226;51.600;8.034;2024-03-29T04:16:46;0.10;;;0.10;;
32876;SDS011;19226;51.600;8.034;2024-03-29T04:19:31;0.20;;;0.20;;
32876;SDS011;19226;51.600;8.034;2024-03-29T04:22:15;0.20;;;0.20;;
32876;SDS011;19226;51.600;8.034;2024-03-29T04:25:00;0.10;;;0.10;;
32876;SDS011;19226;51.600;8.034;2024-03-29T04:27:44;0.20;;;0.20;;
32876;SDS011;19226;51.600;8.034;2024-03-29T04:30:29;0.10;;;0.10;;
32876;SDS011;19226;51.600;8.034;2024-03-29T04:33:14;0.10;;;0.10;;
32876;SDS011;19226;51.600;8.034;2024-03-29T04:35:59;0.10;;;0.10;;
32876;SDS011;19226;51.600;8.034;2024-03-29T04:38:45;0.20;;;0.20;;
32876;SDS011;19226;51.600;8.034;2024-03-29T04:41:31;0.10;;;0.10;;
32876;SDS011;19226;51.600;8.034;2024-03-29T04:44:25;0.10;;;0.10;;
32876;SDS011;19226;51.600;8.034;2024-03-29T04:47:11;0.20;;;0.20;;
32876;SDS011;19226;51.600;8.034;2024-03-29T04:49:56;0.20;;;0.20;;
32876;SDS011;19226;51.600;8.034;2024-03-29T04:52:40;0.10;;;0.10;;
32876;SDS011;19226;51.600;8.034;2024-03-29T04:55:25;0.10;;;0.10;;
32876;SDS011;19226;51.600;8.034;2024-03-29T04:58:10;0.20;;;0.20;;
32876;SDS011;19226;51.600;8.034;2024-03-29T05:00:54;0.10;;;0.10;;
32876;SDS011;19226;51.600;8.034;2024-03-29T05:03:39;0.10;;;0.10;;
32876;SDS011;19226;51.600;8.034;2024-03-29T05:06:24;0.10;;;0.10;;
32876;SDS011;19226;51.600;8.034;2024-03-29T05:09:08;0.10;;;0.10;;
32876;SDS011;19226;51.600;8.034;2024-03-29T05:11:55;0.10;;;0.10;;
32876;SDS011;19226;51.600;8.034;2024-03-29T05:14:40;0.10;;;0.10;;
32876;SDS011;19226;51.600;8.034;2024-03-29T05:17:26;0.10;;;0.10;;
32876;SDS011;19226;51.600;8.034;2024-03-29T05:20:11;0.20;;;0.20;;
32876;SDS011;19226;51.600;8.034;2024-03-29T05:22:55;0.13;;;0.13;;
32876;SDS011;19226;51.600;8.034;2024-03-29T05:25:41;0.20;;;0.20;;
32876;SDS011;19226;51.600;8.034;2024-03-29T05:28:26;0.10;;;0.10;;
32876;SDS011;19226;51.600;8.034;2024-03-29T05:31:11;0.20;;;0.20;;
32876;SDS011;19226;51.600;8.034;2024-03-29T05:33:57;0.10;;;0.10;;
32876;SDS011;19226;51.600;8.034;2024-03-29T05:36:44;0.13;;;0.13;;
32876;SDS011;19226;51.600;8.034;2024-03-29T05:39:29;0.10;;;0.10;;
32876;SDS011;19226;51.600;8.034;2024-03-29T05:42:13;0.10;;;0.10;;
32876;SDS011;19226;51.600;8.034;2024-03-29T05:44:58;0.10;;;0.10;;
32876;SDS011;19226;51.600;8.034;2024-03-29T05:47:43;0.10;;;0.10;;
32876;SDS011;19226;51.600;8.034;2024-03-29T05:50:28;0.10;;;0.10;;
32876;SDS011;19226;51.600;8.034;2024-03-29T05:53:13;0.20;;;0.20;;
32876;SDS011;19226;51.600;8.034;2024-03-29T05:55:58;0.20;;;0.20;;
32876;SDS011;19226;51.600;8.034;2024-03-29T05:58:42;0.20;;;0.20;;
32876;SDS011;19226;51.600;8.034;2024-03-29T06:01:27;0.20;;;0.20;;
32876;SDS011;19226;51.600;8.034;2024-03-29T06:04:11;0.20;;;0.20;;
32876;SDS011;19226;51.600;8.034;2024-03-29T06:07:02;0.20;;;0.20;;
32876;SDS011;19226;51.600;8.034;2024-03-29T06:09:48;0.20;;;0.20;;
32876;SDS011;19226;51.600;8.034;2024-03-29T06:12:33;0.13;;;0.13;;
32876;SDS011;19226;51.600;8.034;2024-03-29T06:15:18;0.20;;;0.20;;
32876;SDS011;19226;51.600;8.034;2024-03-29T06:18:21;0.13;;;0.13;;
32876;SDS011;19226;51.600;8.034;2024-03-29T06:21:05;0.20;;;0.20;;
32876;SDS011;19226;51.600;8.034;2024-03-29T06:23:50;0.20;;;0.20;;
32876;SDS011;19226;51.600;8.034;2024-03-29T06:26:35;0.20;;;0.20;;
32876;SDS011;19226;51.600;8.034;2024-03-29T06:29:19;0.20;;;0.20;;
32876;SDS011;19226;51.600;8.034;2024-03-29T06:32:04;0.20;;;0.20;;
32876;SDS011;19226;51.600;8.034;2024-03-29T06:34:49;0.10;;;0.10;;
32876;SDS011;19226;51.600;8.034;2024-03-29T06:37:34;0.20;;;0.20;;
32876;SDS011;19226;51.600;8.034;2024-03-29T06:40:18;0.15;;;0.15;;
32876;SDS011;19226;51.600;8.034;2024-03-29T06:43:03;0.20;;;0.20;;
32876;SDS011;19226;51.600;8.034;2024-03-29T06:45:48;0.20;;;0.20;;
32876;SDS011;19226;51.600;8.034;2024-03-29T06:48:33;0.10;;;0.10;;
32876;SDS011;19226;51.600;8.034;2024-03-29T06:51:17;0.10;;;0.10;;
32876;SDS011;19226;51.600;8.034;2024-03-29T06:54:02;0.20;;;0.20;;
32876;SDS011;19226;51.600;8.034;2024-03-29T06:56:50;0.20;;;0.20;;
32876;SDS011;19226;51.600;8.034;2024-03-29T06:59:36;0.20;;;0.20;;
32876;SDS011;19226;51.600;8.034;2024-03-29T07:02:20;0.20;;;0.20;;
32876;SDS011;19226;51.600;8.034;2024-03-29T07:05:05;0.20;;;0.20;;
32876;SDS011;19226;51.600;8.034;2024-03-29T07:07:51;0.20;;;0.20;;
32876;SDS011;19226;51.600;8.034;2024-03-29T07:10:37;0.20;;;0.20;;
32876;SDS011;19226;51.600;8.034;2024-03-29T07:13:22;0.13;;;0.13;;
32876;SDS011;19226;51.600;8.034;2024-03-29T07:16:06;0.20;;;0.20;;
32876;SDS011;19226;51.600;8.034;2024-03-29T07:18:51;0.20;;;0.20;;
32876;SDS011;19226;51.600;8.034;2024-03-29T07:21:36;0.17;;;0.17;;
32876;SDS011;19226;51.600;8.034;2024-03-29T07:24:20;0.20;;;0.20;;
32876;SDS011;19226;51.600;8.034;2024-03-29T07:27:05;0.20;;;0.20;;
32876;SDS011;19226;51.600;8.034;2024-03-29T07:29:49;0.13;;;0.13;;
32876;SDS011;19226;51.600;8.034;2024-03-29T07:32:34;0.20;;;0.20;;
32876;SDS011;19226;51.600;8.034;2024-03-29T07:35:19;0.20;;;0.20;;
32876;SDS011;19226;51.600;8.034;2024-03-29T07:38:03;0.20;;;0.20;;
32876;SDS011;19226;51.600;8.034;2024-03-29T07:40:48;0.10;;;0.10;;
32876;SDS011;19226;51.600;8.034;2024-03-29T07:43:39;0.10;;;0.10;;
32876;SDS011;19226;51.600;8.034;2024-03-29T07:46:28;0.10;;;0.10;;
32876;SDS011;19226;51.600;8.034;2024-03-29T07:51:58;0.10;;;0.10;;
32876;SDS011;19226;51.600;8.034;2024-03-29T07:54:46;0.10;;;0.10;;
32876;SDS011;19226;51.600;8.034;2024-03-29T07:57:30;0.20;;;0.20;;
32876;SDS011;19226;51.600;8.034;2024-03-29T08:00:16;0.10;;;0.10;;
32876;SDS011;19226;51.600;8.034;2024-03-29T08:03:01;0.20;;;0.20;;
32876;SDS011;19226;51.600;8.034;2024-03-29T08:06:00;0.20;;;0.20;;
32876;SDS011;19226;51.600;8.034;2024-03-29T08:08:49;0.20;;;0.20;;
32876;SDS011;19226;51.600;8.034;2024-03-29T08:11:38;0.10;;;0.10;;
32876;SDS011;19226;51.600;8.034;2024-03-29T08:14:22;0.10;;;0.10;;
32876;SDS011;19226;51.600;8.034;2024-03-29T08:17:09;0.10;;;0.10;;
32876;SDS011;19226;51.600;8.034;2024-03-29T08:19:54;0.10;;;0.10;;
32876;SDS011;19226;51.600;8.034;2024-03-29T08:22:38;0.10;;;0.10;;
32876;SDS011;19226;51.600;8.034;2024-03-29T08:25:23;0.10;;;0.10;;
32876;SDS011;19226;51.600;8.034;2024-03-29T08:28:07;0.10;;;0.10;;
32876;SDS011;19226;51.600;8.034;2024-03-29T08:30:58;0.10;;;0.10;;
32876;SDS011;19226;51.600;8.034;2024-03-29T08:33:47;0.10;;;0.10;;
32876;SDS011;19226;51.600;8.034;2024-03-29T08:36:33;0.10;;;0.10;;
32876;SDS011;19226;51.600;8.034;2024-03-29T08:39:18;0.10;;;0.10;;
32876;SDS011;19226;51.600;8.034;2024-03-29T08:42:02;0.13;;;0.13;;
32876;SDS011;19226;51.600;8.034;2024-03-29T08:44:51;0.10;;;0.10;;
32876;SDS011;19226;51.600;8.034;2024-03-29T08:47:37;0.10;;;0.10;;
32876;SDS011;19226;51.600;8.034;2024-03-29T08:50:21;0.10;;;0.10;;
32876;SDS011;19226;51.600;8.034;2024-03-29T08:53:06;0.10;;;0.10;;
32876;SDS011;19226;51.600;8.034;2024-03-29T08:55:51;0.10;;;0.10;;
32876;SDS011;19226;51.600;8.034;2024-03-29T08:58:35;0.10;;;0.10;;
32876;SDS011;19226;51.600;8.034;2024-03-29T09:01:20;0.10;;;0.10;;
32876;SDS011;19226;51.600;8.034;2024-03-29T09:04:05;0.10;;;0.10;;
32876;SDS011;19226;51.600;8.034;2024-03-29T09:06:54;0.10;;;0.10;;
32876;SDS011;19226;51.600;8.034;2024-03-29T09:09:39;0.10;;;0.10;;
32876;SDS011;19226;51.600;8.034;2024-03-29T09:12:27;0.10;;;0.10;;
32876;SDS011;19226;51.600;8.034;2024-03-29T09:15:11;0.10;;;0.10;;
32876;SDS011;19226;51.600;8.034;2024-03-29T09:17:59;0.10;;;0.10;;
32876;SDS011;19226;51.600;8.034;2024-03-29T09:20:57;0.10;;;0.10;;
32876;SDS011;19226;51.600;8.034;2024-03-29T09:23:45;0.10;;;0.10;;
32876;SDS011;19226;51.600;8.034;2024-03-29T09:26:33;0.10;;;0.10;;
32876;SDS011;19226;51.600;8.034;2024-03-29T09:29:17;0.10;;;0.10;;
32876;SDS011;19226;51.600;8.034;2024-03-29T09:32:04;0.10;;;0.10;;
32876;SDS011;19226;51.600;8.034;2024-03-29T09:34:49;0.10;;;0.10;;
32876;SDS011;19226;51.600;8.034;2024-03-29T09:37:33;0.10;;;0.10;;
32876;SDS011;19226;51.600;8.034;2024-03-29T09:40:20;0.10;;;0.10;;
32876;SDS011;19226;51.600;8.034;2024-03-29T09:43:04;0.10;;;0.10;;
32876;SDS011;19226;51.600;8.034;2024-03-29T09:45:50;0.10;;;0.10;;
32876;SDS011;19226;51.600;8.034;2024-03-29T09:48:40;0.10;;;0.10;;
32876;SDS011;19226;51.600;8.034;2024-03-29T09:51:26;0.10;;;0.10;;
32876;SDS011;19226;51.600;8.034;2024-03-29T09:54:13;0.10;;;0.10;;
32876;SDS011;19226;51.600;8.034;2024-03-29T09:57:00;0.00;;;0.00;;
32876;SDS011;19226;51.600;8.034;2024-03-29T09:59:45;0.00;;;0.00;;
32876;SDS011;19226;51.600;8.034;2024-03-29T10:02:32;0.10;;;0.10;;
32876;SDS011;19226;51.600;8.034;2024-03-29T10:05:17;0.08;;;0.08;;
32876;SDS011;19226;51.600;8.034;2024-03-29T10:08:04;0.10;;;0.10;;
32876;SDS011;19226;51.600;8.034;2024-03-29T10:10:51;0.10;;;0.10;;
32876;SDS011;19226;51.600;8.034;2024-03-29T10:13:36;0.10;;;0.10;;
32876;SDS011;19226;51.600;8.034;2024-03-29T10:16:21;0.10;;;0.10;;
32876;SDS011;19226;51.600;8.034;2024-03-29T10:19:08;0.00;;;0.00;;
32876;SDS011;19226;51.600;8.034;2024-03-29T10:22:04;0.10;;;0.10;;
32876;SDS011;19226;51.600;8.034;2024-03-29T10:24:50;0.08;;;0.08;;
32876;SDS011;19226;51.600;8.034;2024-03-29T10:27:34;0.00;;;0.00;;
32876;SDS011;19226;51.600;8.034;2024-03-29T10:30:19;0.10;;;0.10;;
32876;SDS011;19226;51.600;8.034;2024-03-29T10:33:05;0.00;;;0.00;;
32876;SDS011;19226;51.600;8.034;2024-03-29T10:35:49;0.00;;;0.00;;
32876;SDS011;19226;51.600;8.034;2024-03-29T10:38:34;0.03;;;0.03;;
32876;SDS011;19226;51.600;8.034;2024-03-29T10:41:20;0.10;;;0.10;;
32876;SDS011;19226;51.600;8.034;2024-03-29T10:44:05;0.10;;;0.10;;
32876;SDS011;19226;51.600;8.034;2024-03-29T10:46:58;0.10;;;0.10;;
32876;SDS011;19226;51.600;8.034;2024-03-29T10:49:46;0.08;;;0.08;;
32876;SDS011;19226;51.600;8.034;2024-03-29T10:55:18;0.10;;;0.10;;
32876;SDS011;19226;51.600;8.034;2024-03-29T10:58:05;0.00;;;0.00;;
32876;SDS011;19226;51.600;8.034;2024-03-29T11:00:50;0.05;;;0.05;;
32876;SDS011;19226;51.600;8.034;2024-03-29T11:03:40;0.00;;;0.00;;
32876;SDS011;19226;51.600;8.034;2024-03-29T11:06:31;0.10;;;0.10;;
32876;SDS011;19226;51.600;8.034;2024-03-29T11:09:21;0.10;;;0.10;;
32876;SDS011;19226;51.600;8.034;2024-03-29T11:12:07;0.00;;;0.00;;
32876;SDS011;19226;51.600;8.034;2024-03-29T11:15:01;0.00;;;0.00;;
32876;SDS011;19226;51.600;8.034;2024-03-29T11:17:48;0.00;;;0.00;;
32876;SDS011;19226;51.600;8.034;2024-03-29T11:20:33;0.10;;;0.10;;
32876;SDS011;19226;51.600;8.034;2024-03-29T11:23:24;0.00;;;0.00;;
32876;SDS011;19226;51.600;8.034;2024-03-29T11:26:10;0.10;;;0.10;;
32876;SDS011;19226;51.600;8.034;2024-03-29T11:28:54;0.00;;;0.00;;
32876;SDS011;19226;51.600;8.034;2024-03-29T11:31:44;0.00;;;0.00;;
32876;SDS011;19226;51.600;8.034;2024-03-29T11:34:31;0.10;;;0.10;;
32876;SDS011;19226;51.600;8.034;2024-03-29T11:37:16;0.10;;;0.10;;
32876;SDS011;19226;51.600;8.034;2024-03-29T11:40:02;0.00;;;0.00;;
32876;SDS011;19226;51.600;8.034;2024-03-29T11:42:48;0.00;;;0.00;;
32876;SDS011;19226;51.600;8.034;2024-03-29T11:45:35;0.00;;;0.00;;
32876;SDS011;19226;51.600;8.034;2024-03-29T11:48:21;0.00;;;0.00;;
32876;SDS011;19226;51.600;8.034;2024-03-29T11:51:11;0.00;;;0.00;;
32876;SDS011;19226;51.600;8.034;2024-03-29T11:53:58;0.00;;;0.00;;
32876;SDS011;19226;51.600;8.034;2024-03-29T11:56:44;0.00;;;0.00;;
32876;SDS011;19226;51.600;8.034;2024-03-29T11:59:29;0.00;;;0.00;;
32876;SDS011;19226;51.600;8.034;2024-03-29T12:02:13;0.00;;;0.00;;
32876;SDS011;19226;51.600;8.034;2024-03-29T12:05:05;0.00;;;0.00;;
32876;SDS011;19226;51.600;8.034;2024-03-29T12:07:51;0.00;;;0.00;;
32876;SDS011;19226;51.600;8.034;2024-03-29T12:10:37;0.00;;;0.00;;
32876;SDS011;19226;51.600;8.034;2024-03-29T12:13:21;0.00;;;0.00;;
32876;SDS011;19226;51.600;8.034;2024-03-29T12:16:06;0.00;;;0.00;;
32876;SDS011;19226;51.600;8.034;2024-03-29T12:18:51;0.00;;;0.00;;
32876;SDS011;19226;51.600;8.034;2024-03-29T12:21:36;0.00;;;0.00;;
32876;SDS011;19226;51.600;8.034;2024-03-29T12:24:20;0.00;;;0.00;;
32876;SDS011;19226;51.600;8.034;2024-03-29T12:29:54;0.00;;;0.00;;
32876;SDS011;19226;51.600;8.034;2024-03-29T12:32:38;0.00;;;0.00;;
32876;SDS011;19226;51.600;8.034;2024-03-29T12:35:23;0.00;;;0.00;;
32876;SDS011;19226;51.600;8.034;2024-03-29T12:38:07;0.00;;;0.00;;
32876;SDS011;19226;51.600;8.034;2024-03-29T12:40:54;0.00;;;0.00;;
32876;SDS011;19226;51.600;8.034;2024-03-29T12:43:39;0.00;;;0.00;;
32876;SDS011;19226;51.600;8.034;2024-03-29T12:46:25;0.00;;;0.00;;
32876;SDS011;19226;51.600;8.034;2024-03-29T12:49:10;0.00;;;0.00;;
32876;SDS011;19226;51.600;8.034;2024-03-29T12:51:57;0.00;;;0.00;;
32876;SDS011;19226;51.600;8.034;2024-03-29T12:54:41;0.00;;;0.00;;
32876;SDS011;19226;51.600;8.034;2024-03-29T12:57:26;0.00;;;0.00;;
32876;SDS011;19226;51.600;8.034;2024-03-29T13:00:11;0.00;;;0.00;;
32876;SDS011;19226;51.600;8.034;2024-03-29T13:02:56;0.00;;;0.00;;
32876;SDS011;19226;51.600;8.034;2024-03-29T13:05:40;0.00;;;0.00;;
32876;SDS011;19226;51.600;8.034;2024-03-29T13:08:25;0.00;;;0.00;;
32876;SDS011;19226;51.600;8.034;2024-03-29T13:11:09;0.00;;;0.00;;
32876;SDS011;19226;51.600;8.034;2024-03-29T13:13:55;0.00;;;0.00;;
32876;SDS011;19226;51.600;8.034;2024-03-29T13:16:39;0.00;;;0.00;;
32876;SDS011;19226;51.600;8.034;2024-03-29T13:19:24;0.00;;;0.00;;
32876;SDS011;19226;51.600;8.034;2024-03-29T13:22:08;0.00;;;0.00;;
32876;SDS011;19226;51.600;8.034;2024-03-29T13:24:53;0.00;;;0.00;;
32876;SDS011;19226;51.600;8.034;2024-03-29T13:27:38;0.00;;;0.00;;
32876;SDS011;19226;51.600;8.034;2024-03-29T13:30:24;0.00;;;0.00;;
32876;SDS011;19226;51.600;8.034;2024-03-29T13:33:10;0.00;;;0.00;;
32876;SDS011;19226;51.600;8.034;2024-03-29T13:35:57;0.00;;;0.00;;
32876;SDS011;19226;51.600;8.034;2024-03-29T13:38:42;0.00;;;0.00;;
32876;SDS011;19226;51.600;8.034;2024-03-29T13:41:26;0.00;;;0.00;;
32876;SDS011;19226;51.600;8.034;2024-03-29T13:44:11;0.00;;;0.00;;
32876;SDS011;19226;51.600;8.034;2024-03-29T13:46:57;0.00;;;0.00;;
32876;SDS011;19226;51.600;8.034;2024-03-29T13:49:42;0.00;;;0.00;;
32876;SDS011;19226;51.600;8.034;2024-03-29T13:52:27;0.00;;;0.00;;
32876;SDS011;19226;51.600;8.034;2024-03-29T13:55:12;0.00;;;0.00;;
32876;SDS011;19226;51.600;8.034;2024-03-29T13:57:56;0.00;;;0.00;;
32876;SDS011;19226;51.600;8.034;2024-03-29T14:00:42;0.00;;;0.00;;
32876;SDS011;19226;51.600;8.034;2024-03-29T14:03:27;0.00;;;0.00;;
32876;SDS011;19226;51.600;8.034;2024-03-29T14:06:12;0.00;;;0.00;;
32876;SDS011;19226;51.600;8.034;2024-03-29T14:08:56;0.00;;;0.00;;
32876;SDS011;19226;51.600;8.034;2024-03-29T14:11:41;0.00;;;0.00;;
32876;SDS011;19226;51.600;8.034;2024-03-29T14:14:27;0.00;;;0.00;;
32876;SDS011;19226;51.600;8.034;2024-03-29T14:17:12;0.00;;;0.00;;
32876;SDS011;19226;51.600;8.034;2024-03-29T14:19:56;0.00;;;0.00;;
32876;SDS011;19226;51.600;8.034;2024-03-29T14:22:41;0.00;;;0.00;;
32876;SDS011;19226;51.600;8.034;2024-03-29T14:25:26;0.00;;;0.00;;
32876;SDS011;19226;51.600;8.034;2024-03-29T14:28:11;0.00;;;0.00;;
32876;SDS011;19226;51.600;8.034;2024-03-29T14:30:56;0.00;;;0.00;;
32876;SDS011;19226;51.600;8.034;2024-03-29T14:33:40;0.00;;;0.00;;
32876;SDS011;19226;51.600;8.034;2024-03-29T14:36:25;0.00;;;0.00;;
32876;SDS011;19226;51.600;8.034;2024-03-29T14:39:10;0.00;;;0.00;;
32876;SDS011;19226;51.600;8.034;2024-03-29T14:41:56;0.00;;;0.00;;
32876;SDS011;19226;51.600;8.034;2024-03-29T14:44:43;0.00;;;0.00;;
32876;SDS011;19226;51.600;8.034;2024-03-29T14:47:27;0.00;;;0.00;;
32876;SDS011;19226;51.600;8.034;2024-03-29T14:50:12;0.00;;;0.00;;
32876;SDS011;19226;51.600;8.034;2024-03-29T14:52:56;0.00;;;0.00;;
32876;SDS011;19226;51.600;8.034;2024-03-29T14:55:41;0.00;;;0.00;;
32876;SDS011;19226;51.600;8.034;2024-03-29T14:58:25;0.00;;;0.00;;
32876;SDS011;19226;51.600;8.034;2024-03-29T15:01:10;0.00;;;0.00;;
32876;SDS011;19226;51.600;8.034;2024-03-29T15:03:55;0.00;;;0.00;;
32876;SDS011;19226;51.600;8.034;2024-03-29T15:06:39;0.00;;;0.00;;
32876;SDS011;19226;51.600;8.034;2024-03-29T15:09:24;0.00;;;0.00;;
32876;SDS011;19226;51.600;8.034;2024-03-29T15:12:09;0.00;;;0.00;;
32876;SDS011;19226;51.600;8.034;2024-03-29T15:14:53;0.00;;;0.00;;
32876;SDS011;19226;51.600;8.034;2024-03-29T15:17:38;0.00;;;0.00;;
32876;SDS011;19226;51.600;8.034;2024-03-29T15:20:22;0.00;;;0.00;;
32876;SDS011;19226;51.600;8.034;2024-03-29T15:23:07;0.00;;;0.00;;
32876;SDS011;19226;51.600;8.034;2024-03-29T15:25:52;0.00;;;0.00;;
32876;SDS011;19226;51.600;8.034;2024-03-29T15:28:37;0.00;;;0.00;;
32876;SDS011;19226;51.600;8.034;2024-03-29T15:31:40;0.00;;;0.00;;
32876;SDS011;19226;51.600;8.034;2024-03-29T15:34:26;0.00;;;0.00;;
32876;SDS011;19226;51.600;8.034;2024-03-29T15:37:11;0.00;;;0.00;;
32876;SDS011;19226;51.600;8.034;2024-03-29T15:39:56;0.00;;;0.00;;
32876;SDS011;19226;51.600;8.034;2024-03-29T15:42:40;0.00;;;0.00;;
32876;SDS011;19226;51.600;8.034;2024-03-29T15:45:25;0.00;;;0.00;;
32876;SDS011;19226;51.600;8.034;2024-03-29T15:48:10;0.00;;;0.00;;
32876;SDS011;19226;51.600;8.034;2024-03-29T15:50:55;0.00;;;0.00;;
32876;SDS011;19226;51.600;8.034;2024-03-29T15:53:39;0.00;;;0.00;;
32876;SDS011;19226;51.600;8.034;2024-03-29T15:56:24;0.00;;;0.00;;
32876;SDS011;19226;51.600;8.034;2024-03-29T15:59:08;0.00;;;0.00;;
32876;SDS011;19226;51.600;8.034;2024-03-29T16:01:55;0.00;;;0.00;;
32876;SDS011;19226;51.600;8.034;2024-03-29T16:04:40;0.00;;;0.00;;
32876;SDS011;19226;51.600;8.034;2024-03-29T16:07:24;0.00;;;0.00;;
32876;SDS011;19226;51.600;8.034;2024-03-29T16:10:09;0.00;;;0.00;;
32876;SDS011;19226;51.600;8.034;2024-03-29T16:12:54;0.00;;;0.00;;
32876;SDS011;19226;51.600;8.034;2024-03-29T16:15:38;0.00;;;0.00;;
32876;SDS011;19226;51.600;8.034;2024-03-29T16:18:23;0.00;;;0.00;;
32876;SDS011;19226;51.600;8.034;2024-03-29T16:21:10;0.00;;;0.00;;
32876;SDS011;19226;51.600;8.034;2024-03-29T16:23:58;0.00;;;0.00;;
32876;SDS011;19226;51.600;8.034;2024-03-29T16:26:42;0.00;;;0.00;;
32876;SDS011;19226;51.600;8.034;2024-03-29T16:29:27;0.00;;;0.00;;
32876;SDS011;19226;51.600;8.034;2024-03-29T16:32:13;0.00;;;0.00;;
32876;SDS011;19226;51.600;8.034;2024-03-29T16:34:58;0.00;;;0.00;;
32876;SDS011;19226;51.600;8.034;2024-03-29T16:37:44;0.00;;;0.00;;
32876;SDS011;19226;51.600;8.034;2024-03-29T16:40:29;0.00;;;0.00;;
32876;SDS011;19226;51.600;8.034;2024-03-29T16:43:14;0.00;;;0.00;;
32876;SDS011;19226;51.600;8.034;2024-03-29T16:45:58;0.00;;;0.00;;